sensor_id;sensor_type;location;lat;lon;timestamp;temperature;humidity
47022;DHT22;32779;52.264;6.154;2023-07-13T00:01:47;17.20;99.90
47022;DHT22;32779;52.264;6.154;2023-07-13T00:04:16;17.10;99.90
47022;DHT22;32779;52.264;6.154;2023-07-13T00:06:42;17.10;99.90
47022;DHT22;32779;52.264;6.154;2023-07-13T00:09:11;17.10;99.90
47022;DHT22;32779;52.264;6.154;2023-07-13T00:11:38;17.10;99.90
47022;DHT22;32779;52.264;6.154;2023-07-13T00:14:04;17.10;99.90
47022;DHT22;32779;52.264;6.154;2023-07-13T00:16:29;17.10;99.90
47022;DHT22;32779;52.264;6.154;2023-07-13T00:18:55;17.00;99.90
47022;DHT22;32779;52.264;6.154;2023-07-13T00:21:21;17.00;99.90
47022;DHT22;32779;52.264;6.154;2023-07-13T00:23:46;17.00;99.90
47022;DHT22;32779;52.264;6.154;2023-07-13T00:26:12;16.90;99.90
47022;DHT22;32779;52.264;6.154;2023-07-13T00:28:38;16.90;99.90
47022;DHT22;32779;52.264;6.154;2023-07-13T00:31:05;16.90;99.90
47022;DHT22;32779;52.264;6.154;2023-07-13T00:33:30;16.80;99.90
47022;DHT22;32779;52.264;6.154;2023-07-13T00:35:57;16.80;99.90
47022;DHT22;32779;52.264;6.154;2023-07-13T00:38:23;16.80;99.90
47022;DHT22;32779;52.264;6.154;2023-07-13T00:40:48;16.70;99.90
47022;DHT22;32779;52.264;6.154;2023-07-13T00:43:19;16.70;99.90
47022;DHT22;32779;52.264;6.154;2023-07-13T00:48:11;16.60;99.90
47022;DHT22;32779;52.264;6.154;2023-07-13T00:50:38;16.60;99.90
47022;DHT22;32779;52.264;6.154;2023-07-13T00:53:04;16.50;99.90
47022;DHT22;32779;52.264;6.154;2023-07-13T00:55:30;16.50;99.90
47022;DHT22;32779;52.264;6.154;2023-07-13T00:57:56;16.40;99.90
47022;DHT22;32779;52.264;6.154;2023-07-13T01:00:22;16.40;99.90
47022;DHT22;32779;52.264;6.154;2023-07-13T01:02:48;16.40;99.90
47022;DHT22;32779;52.264;6.154;2023-07-13T01:05:18;16.40;99.90
47022;DHT22;32779;52.264;6.154;2023-07-13T01:07:45;16.30;99.90
47022;DHT22;32779;52.264;6.154;2023-07-13T01:10:11;16.30;99.90
47022;DHT22;32779;52.264;6.154;2023-07-13T01:12:37;16.30;99.90
47022;DHT22;32779;52.264;6.154;2023-07-13T01:15:03;16.30;99.90
47022;DHT22;32779;52.264;6.154;2023-07-13T01:17:31;16.30;99.90
47022;DHT22;32779;52.264;6.154;2023-07-13T01:19:58;16.20;99.90
47022;DHT22;32779;52.264;6.154;2023-07-13T01:22:24;16.20;99.90
47022;DHT22;32779;52.264;6.154;2023-07-13T01:24:53;16.20;99.90
47022;DHT22;32779;52.264;6.154;2023-07-13T01:27:24;16.10;99.90
47022;DHT22;32779;52.264;6.154;2023-07-13T01:29:50;16.10;99.90
47022;DHT22;32779;52.264;6.154;2023-07-13T01:32:20;16.10;99.90
47022;DHT22;32779;52.264;6.154;2023-07-13T01:34:50;16.00;99.90
47022;DHT22;32779;52.264;6.154;2023-07-13T01:37:16;16.00;99.90
47022;DHT22;32779;52.264;6.154;2023-07-13T01:39:42;16.00;99.90
47022;DHT22;32779;52.264;6.154;2023-07-13T01:42:07;16.00;99.90
47022;DHT22;32779;52.264;6.154;2023-07-13T01:44:33;16.00;99.90
47022;DHT22;32779;52.264;6.154;2023-07-13T01:47:00;16.00;99.90
47022;DHT22;32779;52.264;6.154;2023-07-13T01:49:26;16.00;99.90
47022;DHT22;32779;52.264;6.154;2023-07-13T01:51:51;16.00;99.90
47022;DHT22;32779;52.264;6.154;2023-07-13T01:54:17;15.90;99.90
47022;DHT22;32779;52.264;6.154;2023-07-13T01:56:42;15.90;99.90
47022;DHT22;32779;52.264;6.154;2023-07-13T01:59:09;15.90;99.90
47022;DHT22;32779;52.264;6.154;2023-07-13T02:01:34;15.90;99.90
47022;DHT22;32779;52.264;6.154;2023-07-13T02:04:00;15.90;99.90
47022;DHT22;32779;52.264;6.154;2023-07-13T02:06:26;15.90;99.90
47022;DHT22;32779;52.264;6.154;2023-07-13T02:08:51;15.80;99.90
47022;DHT22;32779;52.264;6.154;2023-07-13T02:11:17;15.80;99.90
47022;DHT22;32779;52.264;6.154;2023-07-13T02:13:43;15.80;99.90
47022;DHT22;32779;52.264;6.154;2023-07-13T02:16:08;15.80;99.90
47022;DHT22;32779;52.264;6.154;2023-07-13T02:18:34;15.80;99.90
47022;DHT22;32779;52.264;6.154;2023-07-13T02:20:59;15.80;99.90
47022;DHT22;32779;52.264;6.154;2023-07-13T02:23:25;15.80;99.90
47022;DHT22;32779;52.264;6.154;2023-07-13T02:25:56;15.70;99.90
47022;DHT22;32779;52.264;6.154;2023-07-13T02:28:21;15.70;99.90
47022;DHT22;32779;52.264;6.154;2023-07-13T02:30:47;15.70;99.90
47022;DHT22;32779;52.264;6.154;2023-07-13T02:33:13;15.70;99.90
47022;DHT22;32779;52.264;6.154;2023-07-13T02:35:38;15.70;99.90
47022;DHT22;32779;52.264;6.154;2023-07-13T02:38:04;15.70;99.90
47022;DHT22;32779;52.264;6.154;2023-07-13T02:40:30;15.70;99.90
47022;DHT22;32779;52.264;6.154;2023-07-13T02:42:58;15.70;99.90
47022;DHT22;32779;52.264;6.154;2023-07-13T02:45:25;15.70;99.90
47022;DHT22;32779;52.264;6.154;2023-07-13T02:47:51;15.60;99.90
47022;DHT22;32779;52.264;6.154;2023-07-13T02:50:17;15.60;99.90
47022;DHT22;32779;52.264;6.154;2023-07-13T02:52:42;15.60;99.90
47022;DHT22;32779;52.264;6.154;2023-07-13T02:55:08;15.60;99.90
47022;DHT22;32779;52.264;6.154;2023-07-13T02:57:34;15.50;99.90
47022;DHT22;32779;52.264;6.154;2023-07-13T03:00:00;15.50;99.90
47022;DHT22;32779;52.264;6.154;2023-07-13T03:02:25;15.50;99.90
47022;DHT22;32779;52.264;6.154;2023-07-13T03:04:54;15.40;99.90
47022;DHT22;32779;52.264;6.154;2023-07-13T03:07:20;15.50;99.90
47022;DHT22;32779;52.264;6.154;2023-07-13T03:09:46;15.50;99.90
47022;DHT22;32779;52.264;6.154;2023-07-13T03:12:11;15.40;99.90
47022;DHT22;32779;52.264;6.154;2023-07-13T03:14:37;15.40;99.90
47022;DHT22;32779;52.264;6.154;2023-07-13T03:17:02;15.40;99.90
47022;DHT22;32779;52.264;6.154;2023-07-13T03:19:28;15.40;99.90
47022;DHT22;32779;52.264;6.154;2023-07-13T03:21:54;15.40;99.90
47022;DHT22;32779;52.264;6.154;2023-07-13T03:24:19;15.30;99.90
47022;DHT22;32779;52.264;6.154;2023-07-13T03:26:45;15.40;99.90
47022;DHT22;32779;52.264;6.154;2023-07-13T03:29:11;15.30;99.90
47022;DHT22;32779;52.264;6.154;2023-07-13T03:31:37;15.30;99.90
47022;DHT22;32779;52.264;6.154;2023-07-13T03:34:04;15.30;99.90
47022;DHT22;32779;52.264;6.154;2023-07-13T03:36:29;15.30;99.90
47022;DHT22;32779;52.264;6.154;2023-07-13T03:38:58;15.30;99.90
47022;DHT22;32779;52.264;6.154;2023-07-13T03:41:25;15.30;99.90
47022;DHT22;32779;52.264;6.154;2023-07-13T03:43:51;15.20;99.90
47022;DHT22;32779;52.264;6.154;2023-07-13T03:46:17;15.20;99.90
47022;DHT22;32779;52.264;6.154;2023-07-13T03:48:44;15.20;99.90
47022;DHT22;32779;52.264;6.154;2023-07-13T03:51:12;15.20;99.90
47022;DHT22;32779;52.264;6.154;2023-07-13T03:53:41;15.10;99.90
47022;DHT22;32779;52.264;6.154;2023-07-13T03:56:08;15.20;99.90
47022;DHT22;32779;52.264;6.154;2023-07-13T03:58:37;15.10;99.90
47022;DHT22;32779;52.264;6.154;2023-07-13T04:01:05;15.20;99.90
47022;DHT22;32779;52.264;6.154;2023-07-13T04:03:31;15.10;99.90
47022;DHT22;32779;52.264;6.154;2023-07-13T04:06:02;15.10;99.90
47022;DHT22;32779;52.264;6.154;2023-07-13T04:08:31;15.10;99.90
47022;DHT22;32779;52.264;6.154;2023-07-13T04:10:57;15.10;99.90
47022;DHT22;32779;52.264;6.154;2023-07-13T04:13:24;15.10;99.90
47022;DHT22;32779;52.264;6.154;2023-07-13T04:15:50;15.10;99.90
47022;DHT22;32779;52.264;6.154;2023-07-13T04:18:16;15.10;99.90
47022;DHT22;32779;52.264;6.154;2023-07-13T04:20:42;15.10;99.90
47022;DHT22;32779;52.264;6.154;2023-07-13T04:23:08;15.20;99.90
47022;DHT22;32779;52.264;6.154;2023-07-13T04:25:33;15.20;99.90
47022;DHT22;32779;52.264;6.154;2023-07-13T04:27:59;15.20;99.90
47022;DHT22;32779;52.264;6.154;2023-07-13T04:30:25;15.20;99.90
47022;DHT22;32779;52.264;6.154;2023-07-13T04:32:51;15.20;99.90
47022;DHT22;32779;52.264;6.154;2023-07-13T04:35:21;15.30;99.90
47022;DHT22;32779;52.264;6.154;2023-07-13T04:37:48;15.20;99.90
47022;DHT22;32779;52.264;6.154;2023-07-13T04:40:16;15.30;99.90
47022;DHT22;32779;52.264;6.154;2023-07-13T04:42:42;15.30;99.90
47022;DHT22;32779;52.264;6.154;2023-07-13T04:45:08;15.30;99.90
47022;DHT22;32779;52.264;6.154;2023-07-13T04:47:34;15.40;99.90
47022;DHT22;32779;52.264;6.154;2023-07-13T04:49:59;15.30;99.90
47022;DHT22;32779;52.264;6.154;2023-07-13T04:52:25;15.40;99.90
47022;DHT22;32779;52.264;6.154;2023-07-13T04:54:50;15.40;99.90
47022;DHT22;32779;52.264;6.154;2023-07-13T04:57:16;15.40;99.90
47022;DHT22;32779;52.264;6.154;2023-07-13T04:59:42;15.50;99.90
47022;DHT22;32779;52.264;6.154;2023-07-13T05:02:08;15.50;99.90
47022;DHT22;32779;52.264;6.154;2023-07-13T05:04:34;15.50;99.90
47022;DHT22;32779;52.264;6.154;2023-07-13T05:07:00;15.50;99.90
47022;DHT22;32779;52.264;6.154;2023-07-13T05:09:25;15.60;99.90
47022;DHT22;32779;52.264;6.154;2023-07-13T05:11:51;15.60;99.90
47022;DHT22;32779;52.264;6.154;2023-07-13T05:14:16;15.70;99.90
47022;DHT22;32779;52.264;6.154;2023-07-13T05:16:42;15.70;99.90
47022;DHT22;32779;52.264;6.154;2023-07-13T05:19:08;15.80;99.90
47022;DHT22;32779;52.264;6.154;2023-07-13T05:21:34;15.80;99.90
47022;DHT22;32779;52.264;6.154;2023-07-13T05:23:59;15.80;99.90
47022;DHT22;32779;52.264;6.154;2023-07-13T05:26:25;15.90;99.90
47022;DHT22;32779;52.264;6.154;2023-07-13T05:28:51;15.90;99.90
47022;DHT22;32779;52.264;6.154;2023-07-13T05:31:16;16.00;99.90
47022;DHT22;32779;52.264;6.154;2023-07-13T05:33:42;16.10;99.90
47022;DHT22;32779;52.264;6.154;2023-07-13T05:36:08;16.10;99.90
47022;DHT22;32779;52.264;6.154;2023-07-13T05:38:33;16.20;99.90
47022;DHT22;32779;52.264;6.154;2023-07-13T05:40:59;16.30;99.90
47022;DHT22;32779;52.264;6.154;2023-07-13T05:43:25;16.30;99.90
47022;DHT22;32779;52.264;6.154;2023-07-13T05:45:55;16.40;99.90
47022;DHT22;32779;52.264;6.154;2023-07-13T05:48:21;16.50;99.90
47022;DHT22;32779;52.264;6.154;2023-07-13T05:50:47;16.60;99.90
47022;DHT22;32779;52.264;6.154;2023-07-13T05:53:13;16.70;99.90
47022;DHT22;32779;52.264;6.154;2023-07-13T05:55:45;16.70;99.90
47022;DHT22;32779;52.264;6.154;2023-07-13T05:58:13;16.80;99.90
47022;DHT22;32779;52.264;6.154;2023-07-13T06:00:39;16.90;99.90
47022;DHT22;32779;52.264;6.154;2023-07-13T06:03:05;17.00;99.90
47022;DHT22;32779;52.264;6.154;2023-07-13T06:05:32;17.00;99.90
47022;DHT22;32779;52.264;6.154;2023-07-13T06:07:59;17.10;99.90
47022;DHT22;32779;52.264;6.154;2023-07-13T06:10:25;17.20;99.90
47022;DHT22;32779;52.264;6.154;2023-07-13T06:12:50;17.30;99.90
47022;DHT22;32779;52.264;6.154;2023-07-13T06:15:16;17.30;99.90
47022;DHT22;32779;52.264;6.154;2023-07-13T06:17:42;17.40;99.90
47022;DHT22;32779;52.264;6.154;2023-07-13T06:20:07;17.50;99.90
47022;DHT22;32779;52.264;6.154;2023-07-13T06:22:33;17.60;99.90
47022;DHT22;32779;52.264;6.154;2023-07-13T06:24:59;17.70;99.90
47022;DHT22;32779;52.264;6.154;2023-07-13T06:27:24;17.70;99.90
47022;DHT22;32779;52.264;6.154;2023-07-13T06:29:50;17.80;99.90
47022;DHT22;32779;52.264;6.154;2023-07-13T06:32:15;17.90;99.90
47022;DHT22;32779;52.264;6.154;2023-07-13T06:34:41;18.00;99.90
47022;DHT22;32779;52.264;6.154;2023-07-13T06:37:07;18.00;99.90
47022;DHT22;32779;52.264;6.154;2023-07-13T06:39:32;18.10;99.90
47022;DHT22;32779;52.264;6.154;2023-07-13T06:41:58;18.10;99.90
47022;DHT22;32779;52.264;6.154;2023-07-13T06:44:25;18.10;99.90
47022;DHT22;32779;52.264;6.154;2023-07-13T06:46:51;18.20;99.90
47022;DHT22;32779;52.264;6.154;2023-07-13T06:49:16;18.40;99.90
47022;DHT22;32779;52.264;6.154;2023-07-13T06:51:42;18.50;99.90
47022;DHT22;32779;52.264;6.154;2023-07-13T06:54:08;18.60;99.90
47022;DHT22;32779;52.264;6.154;2023-07-13T06:56:33;18.80;99.90
47022;DHT22;32779;52.264;6.154;2023-07-13T06:58:59;18.90;99.90
47022;DHT22;32779;52.264;6.154;2023-07-13T07:01:25;19.00;99.90
47022;DHT22;32779;52.264;6.154;2023-07-13T07:03:50;19.20;99.90
47022;DHT22;32779;52.264;6.154;2023-07-13T07:06:18;19.40;99.90
47022;DHT22;32779;52.264;6.154;2023-07-13T07:08:45;19.60;99.90
47022;DHT22;32779;52.264;6.154;2023-07-13T07:11:20;19.80;99.90
47022;DHT22;32779;52.264;6.154;2023-07-13T07:13:46;20.00;99.90
47022;DHT22;32779;52.264;6.154;2023-07-13T07:16:11;20.00;99.90
47022;DHT22;32779;52.264;6.154;2023-07-13T07:18:37;20.00;99.90
47022;DHT22;32779;52.264;6.154;2023-07-13T07:21:03;20.00;99.90
47022;DHT22;32779;52.264;6.154;2023-07-13T07:23:29;19.90;99.90
47022;DHT22;32779;52.264;6.154;2023-07-13T07:25:55;19.80;99.90
47022;DHT22;32779;52.264;6.154;2023-07-13T07:28:21;19.80;99.90
47022;DHT22;32779;52.264;6.154;2023-07-13T07:30:47;19.80;99.90
47022;DHT22;32779;52.264;6.154;2023-07-13T07:33:14;19.80;99.90
47022;DHT22;32779;52.264;6.154;2023-07-13T07:35:40;19.80;99.90
47022;DHT22;32779;52.264;6.154;2023-07-13T07:38:06;19.90;99.90
47022;DHT22;32779;52.264;6.154;2023-07-13T07:40:31;20.00;99.90
47022;DHT22;32779;52.264;6.154;2023-07-13T07:42:58;20.10;99.90
47022;DHT22;32779;52.264;6.154;2023-07-13T07:45:23;20.40;99.90
47022;DHT22;32779;52.264;6.154;2023-07-13T07:47:49;20.60;99.90
47022;DHT22;32779;52.264;6.154;2023-07-13T07:50:15;20.70;99.90
47022;DHT22;32779;52.264;6.154;2023-07-13T07:52:41;20.70;99.90
47022;DHT22;32779;52.264;6.154;2023-07-13T07:55:08;20.80;99.90
47022;DHT22;32779;52.264;6.154;2023-07-13T07:57:33;20.80;99.90
47022;DHT22;32779;52.264;6.154;2023-07-13T07:59:59;20.70;99.90
47022;DHT22;32779;52.264;6.154;2023-07-13T08:02:25;20.80;99.90
47022;DHT22;32779;52.264;6.154;2023-07-13T08:04:51;21.10;99.90
47022;DHT22;32779;52.264;6.154;2023-07-13T08:07:18;21.30;99.90
47022;DHT22;32779;52.264;6.154;2023-07-13T08:09:43;21.50;99.90
47022;DHT22;32779;52.264;6.154;2023-07-13T08:12:09;21.60;99.90
47022;DHT22;32779;52.264;6.154;2023-07-13T08:14:35;21.70;99.90
47022;DHT22;32779;52.264;6.154;2023-07-13T08:17:01;21.90;99.90
47022;DHT22;32779;52.264;6.154;2023-07-13T08:19:27;21.90;99.90
47022;DHT22;32779;52.264;6.154;2023-07-13T08:21:53;21.80;99.90
47022;DHT22;32779;52.264;6.154;2023-07-13T08:24:21;21.60;99.90
47022;DHT22;32779;52.264;6.154;2023-07-13T08:26:47;21.50;99.90
47022;DHT22;32779;52.264;6.154;2023-07-13T08:29:12;21.70;99.90
47022;DHT22;32779;52.264;6.154;2023-07-13T08:31:38;21.90;99.90
47022;DHT22;32779;52.264;6.154;2023-07-13T08:34:04;21.90;99.90
47022;DHT22;32779;52.264;6.154;2023-07-13T08:36:30;21.90;99.90
47022;DHT22;32779;52.264;6.154;2023-07-13T08:38:55;21.70;99.90
47022;DHT22;32779;52.264;6.154;2023-07-13T08:41:21;21.60;99.90
47022;DHT22;32779;52.264;6.154;2023-07-13T08:43:50;21.50;99.90
47022;DHT22;32779;52.264;6.154;2023-07-13T08:46:25;21.40;99.90
47022;DHT22;32779;52.264;6.154;2023-07-13T08:54:45;21.20;99.90
47022;DHT22;32779;52.264;6.154;2023-07-13T08:57:21;21.10;99.90
47022;DHT22;32779;52.264;6.154;2023-07-13T08:59:48;21.00;99.90
47022;DHT22;32779;52.264;6.154;2023-07-13T09:02:25;21.00;99.90
47022;DHT22;32779;52.264;6.154;2023-07-13T09:05:27;21.10;99.90
47022;DHT22;32779;52.264;6.154;2023-07-13T09:10:48;21.50;99.90
47022;DHT22;32779;52.264;6.154;2023-07-13T09:13:41;21.80;99.90
47022;DHT22;32779;52.264;6.154;2023-07-13T09:16:09;22.00;99.90
47022;DHT22;32779;52.264;6.154;2023-07-13T09:18:43;22.20;99.90
47022;DHT22;32779;52.264;6.154;2023-07-13T09:21:32;22.50;99.90
47022;DHT22;32779;52.264;6.154;2023-07-13T09:27:00;22.20;99.90
47022;DHT22;32779;52.264;6.154;2023-07-13T09:29:34;21.90;99.90
47022;DHT22;32779;52.264;6.154;2023-07-13T09:32:07;21.70;99.90
47022;DHT22;32779;52.264;6.154;2023-07-13T09:34:35;21.70;99.90
47022;DHT22;32779;52.264;6.154;2023-07-13T09:37:01;21.70;99.90
47022;DHT22;32779;52.264;6.154;2023-07-13T09:39:30;21.90;99.90
47022;DHT22;32779;52.264;6.154;2023-07-13T09:42:07;22.20;99.90
47022;DHT22;32779;52.264;6.154;2023-07-13T09:44:58;22.30;99.90
47022;DHT22;32779;52.264;6.154;2023-07-13T09:47:28;22.20;99.90
47022;DHT22;32779;52.264;6.154;2023-07-13T09:50:03;22.20;99.90
47022;DHT22;32779;52.264;6.154;2023-07-13T09:52:41;22.10;99.90
47022;DHT22;32779;52.264;6.154;2023-07-13T09:55:37;21.70;99.90
47022;DHT22;32779;52.264;6.154;2023-07-13T10:00:42;20.90;99.90
47022;DHT22;32779;52.264;6.154;2023-07-13T10:03:24;20.60;99.90
47022;DHT22;32779;52.264;6.154;2023-07-13T10:05:52;20.40;99.90
47022;DHT22;32779;52.264;6.154;2023-07-13T10:08:28;20.20;99.90
47022;DHT22;32779;52.264;6.154;2023-07-13T10:11:01;20.30;99.90
47022;DHT22;32779;52.264;6.154;2023-07-13T10:13:37;20.20;99.90
47022;DHT22;32779;52.264;6.154;2023-07-13T10:16:07;20.30;99.90
47022;DHT22;32779;52.264;6.154;2023-07-13T10:18:41;20.50;99.90
47022;DHT22;32779;52.264;6.154;2023-07-13T10:22:09;20.70;99.90
47022;DHT22;32779;52.264;6.154;2023-07-13T10:24:26;21.20;99.90
47022;DHT22;32779;52.264;6.154;2023-07-13T10:27:16;21.50;99.90
47022;DHT22;32779;52.264;6.154;2023-07-13T10:30:19;21.80;99.90
47022;DHT22;32779;52.264;6.154;2023-07-13T10:32:49;22.10;99.90
47022;DHT22;32779;52.264;6.154;2023-07-13T10:35:17;22.30;99.90
47022;DHT22;32779;52.264;6.154;2023-07-13T10:37:52;22.40;99.90
47022;DHT22;32779;52.264;6.154;2023-07-13T10:40:25;22.40;99.90
47022;DHT22;32779;52.264;6.154;2023-07-13T10:42:54;22.50;99.90
47022;DHT22;32779;52.264;6.154;2023-07-13T10:45:22;22.60;99.90
47022;DHT22;32779;52.264;6.154;2023-07-13T10:47:51;22.50;99.90
47022;DHT22;32779;52.264;6.154;2023-07-13T10:50:28;22.30;99.90
47022;DHT22;32779;52.264;6.154;2023-07-13T10:53:02;22.20;99.90
47022;DHT22;32779;52.264;6.154;2023-07-13T10:55:56;21.90;99.90
47022;DHT22;32779;52.264;6.154;2023-07-13T10:58:37;21.60;99.90
47022;DHT22;32779;52.264;6.154;2023-07-13T11:03:51;21.10;99.90
47022;DHT22;32779;52.264;6.154;2023-07-13T11:06:31;21.00;99.90
47022;DHT22;32779;52.264;6.154;2023-07-13T11:09:38;20.80;99.90
47022;DHT22;32779;52.264;6.154;2023-07-13T11:22:52;21.00;99.90
47022;DHT22;32779;52.264;6.154;2023-07-13T11:36:38;21.70;99.90
47022;DHT22;32779;52.264;6.154;2023-07-13T11:41:45;22.10;99.90
47022;DHT22;32779;52.264;6.154;2023-07-13T11:44:17;22.10;99.90
47022;DHT22;32779;52.264;6.154;2023-07-13T11:46:52;22.30;99.90
47022;DHT22;32779;52.264;6.154;2023-07-13T11:49:25;22.50;99.90
47022;DHT22;32779;52.264;6.154;2023-07-13T11:51:56;22.70;99.90
47022;DHT22;32779;52.264;6.154;2023-07-13T11:54:47;22.70;99.90
47022;DHT22;32779;52.264;6.154;2023-07-13T11:57:28;22.40;99.90
47022;DHT22;32779;52.264;6.154;2023-07-13T11:59:55;22.20;99.90
47022;DHT22;32779;52.264;6.154;2023-07-13T12:02:31;22.00;99.90
47022;DHT22;32779;52.264;6.154;2023-07-13T12:04:57;22.10;99.90
47022;DHT22;32779;52.264;6.154;2023-07-13T12:07:24;22.30;99.90
47022;DHT22;32779;52.264;6.154;2023-07-13T12:09:49;22.50;99.90
47022;DHT22;32779;52.264;6.154;2023-07-13T12:12:22;22.80;99.90
47022;DHT22;32779;52.264;6.154;2023-07-13T12:14:54;23.00;99.90
47022;DHT22;32779;52.264;6.154;2023-07-13T12:17:23;22.90;99.90
47022;DHT22;32779;52.264;6.154;2023-07-13T12:19:50;22.80;99.90
47022;DHT22;32779;52.264;6.154;2023-07-13T12:22:18;22.30;99.90
47022;DHT22;32779;52.264;6.154;2023-07-13T12:24:46;22.00;99.90
47022;DHT22;32779;52.264;6.154;2023-07-13T12:27:28;21.70;99.90
47022;DHT22;32779;52.264;6.154;2023-07-13T12:29:58;21.60;99.90
47022;DHT22;32779;52.264;6.154;2023-07-13T12:32:25;21.50;99.90
47022;DHT22;32779;52.264;6.154;2023-07-13T12:34:53;21.60;99.90
47022;DHT22;32779;52.264;6.154;2023-07-13T12:37:20;21.50;99.90
47022;DHT22;32779;52.264;6.154;2023-07-13T12:39:47;21.50;99.90
47022;DHT22;32779;52.264;6.154;2023-07-13T12:44:41;21.50;99.90
47022;DHT22;32779;52.264;6.154;2023-07-13T12:47:15;21.60;99.90
47022;DHT22;32779;52.264;6.154;2023-07-13T12:49:54;21.40;99.90
47022;DHT22;32779;52.264;6.154;2023-07-13T12:52:27;21.30;99.90
47022;DHT22;32779;52.264;6.154;2023-07-13T12:55:04;21.10;99.90
47022;DHT22;32779;52.264;6.154;2023-07-13T12:57:30;21.00;99.90
47022;DHT22;32779;52.264;6.154;2023-07-13T12:59:56;21.00;99.90
47022;DHT22;32779;52.264;6.154;2023-07-13T13:02:30;21.10;99.90
47022;DHT22;32779;52.264;6.154;2023-07-13T13:04:58;21.10;99.90
47022;DHT22;32779;52.264;6.154;2023-07-13T13:07:25;21.10;99.90
47022;DHT22;32779;52.264;6.154;2023-07-13T13:09:51;21.10;99.90
47022;DHT22;32779;52.264;6.154;2023-07-13T13:12:19;21.00;99.90
47022;DHT22;32779;52.264;6.154;2023-07-13T13:14:45;20.80;99.90
47022;DHT22;32779;52.264;6.154;2023-07-13T13:17:30;20.80;99.90
47022;DHT22;32779;52.264;6.154;2023-07-13T13:19:57;20.70;99.90
47022;DHT22;32779;52.264;6.154;2023-07-13T13:22:22;20.70;99.90
47022;DHT22;32779;52.264;6.154;2023-07-13T13:24:48;20.70;99.90
47022;DHT22;32779;52.264;6.154;2023-07-13T13:27:21;20.80;99.90
47022;DHT22;32779;52.264;6.154;2023-07-13T13:29:49;20.80;99.90
47022;DHT22;32779;52.264;6.154;2023-07-13T13:32:17;21.00;99.90
47022;DHT22;32779;52.264;6.154;2023-07-13T13:34:44;21.30;99.90
47022;DHT22;32779;52.264;6.154;2023-07-13T13:37:21;21.50;99.90
47022;DHT22;32779;52.264;6.154;2023-07-13T13:39:48;21.70;99.90
47022;DHT22;32779;52.264;6.154;2023-07-13T13:42:14;21.80;99.90
47022;DHT22;32779;52.264;6.154;2023-07-13T13:44:40;21.70;99.90
47022;DHT22;32779;52.264;6.154;2023-07-13T13:47:30;21.70;99.90
47022;DHT22;32779;52.264;6.154;2023-07-13T13:49:56;21.80;99.90
47022;DHT22;32779;52.264;6.154;2023-07-13T13:52:23;22.10;99.90
47022;DHT22;32779;52.264;6.154;2023-07-13T13:54:49;22.30;99.90
47022;DHT22;32779;52.264;6.154;2023-07-13T13:57:15;22.50;99.90
47022;DHT22;32779;52.264;6.154;2023-07-13T13:59:41;22.50;99.90
47022;DHT22;32779;52.264;6.154;2023-07-13T14:02:36;22.60;99.90
47022;DHT22;32779;52.264;6.154;2023-07-13T14:05:03;22.40;99.90
47022;DHT22;32779;52.264;6.154;2023-07-13T14:07:29;22.40;99.90
47022;DHT22;32779;52.264;6.154;2023-07-13T14:09:59;22.40;99.90
47022;DHT22;32779;52.264;6.154;2023-07-13T14:12:27;22.40;99.90
47022;DHT22;32779;52.264;6.154;2023-07-13T14:14:56;22.40;99.90
47022;DHT22;32779;52.264;6.154;2023-07-13T14:17:25;22.40;99.90
47022;DHT22;32779;52.264;6.154;2023-07-13T14:19:52;22.40;99.90
47022;DHT22;32779;52.264;6.154;2023-07-13T14:22:23;22.30;99.90
47022;DHT22;32779;52.264;6.154;2023-07-13T14:24:51;22.30;99.90
47022;DHT22;32779;52.264;6.154;2023-07-13T14:27:17;22.30;99.90
47022;DHT22;32779;52.264;6.154;2023-07-13T14:29:43;22.30;99.90
47022;DHT22;32779;52.264;6.154;2023-07-13T14:32:10;22.50;99.90
47022;DHT22;32779;52.264;6.154;2023-07-13T14:34:36;22.60;99.90
47022;DHT22;32779;52.264;6.154;2023-07-13T14:37:03;22.70;99.90
47022;DHT22;32779;52.264;6.154;2023-07-13T14:39:29;22.70;99.90
47022;DHT22;32779;52.264;6.154;2023-07-13T14:41:56;22.60;99.90
47022;DHT22;32779;52.264;6.154;2023-07-13T14:44:30;22.40;99.90
47022;DHT22;32779;52.264;6.154;2023-07-13T14:46:58;22.30;99.90
47022;DHT22;32779;52.264;6.154;2023-07-13T14:49:27;22.30;99.90
47022;DHT22;32779;52.264;6.154;2023-07-13T14:51:56;22.40;99.90
47022;DHT22;32779;52.264;6.154;2023-07-13T14:54:23;22.50;99.90
47022;DHT22;32779;52.264;6.154;2023-07-13T14:56:49;22.60;99.90
47022;DHT22;32779;52.264;6.154;2023-07-13T14:59:16;22.60;99.90
47022;DHT22;32779;52.264;6.154;2023-07-13T15:01:45;22.70;99.90
47022;DHT22;32779;52.264;6.154;2023-07-13T15:04:11;22.70;99.90
47022;DHT22;32779;52.264;6.154;2023-07-13T15:06:57;22.60;99.90
47022;DHT22;32779;52.264;6.154;2023-07-13T15:09:24;22.40;99.90
47022;DHT22;32779;52.264;6.154;2023-07-13T15:11:55;22.30;99.90
47022;DHT22;32779;52.264;6.154;2023-07-13T15:14:21;22.20;99.90
47022;DHT22;32779;52.264;6.154;2023-07-13T15:16:49;22.10;99.90
47022;DHT22;32779;52.264;6.154;2023-07-13T15:19:18;22.20;99.90
47022;DHT22;32779;52.264;6.154;2023-07-13T15:21:44;22.20;99.90
47022;DHT22;32779;52.264;6.154;2023-07-13T15:24:10;22.30;99.90
47022;DHT22;32779;52.264;6.154;2023-07-13T15:26:36;22.20;99.90
47022;DHT22;32779;52.264;6.154;2023-07-13T15:29:04;22.30;99.90
47022;DHT22;32779;52.264;6.154;2023-07-13T15:31:31;22.40;99.90
47022;DHT22;32779;52.264;6.154;2023-07-13T15:33:58;22.50;99.90
47022;DHT22;32779;52.264;6.154;2023-07-13T15:36:26;22.50;99.90
47022;DHT22;32779;52.264;6.154;2023-07-13T15:38:54;22.50;99.90
47022;DHT22;32779;52.264;6.154;2023-07-13T15:41:26;22.40;99.90
47022;DHT22;32779;52.264;6.154;2023-07-13T15:43:55;22.40;99.90
47022;DHT22;32779;52.264;6.154;2023-07-13T15:46:22;22.50;99.90
47022;DHT22;32779;52.264;6.154;2023-07-13T15:48:51;22.60;99.90
47022;DHT22;32779;52.264;6.154;2023-07-13T15:51:27;22.70;99.90
47022;DHT22;32779;52.264;6.154;2023-07-13T15:53:55;22.70;99.90
47022;DHT22;32779;52.264;6.154;2023-07-13T15:56:25;22.70;99.90
47022;DHT22;32779;52.264;6.154;2023-07-13T15:58:52;22.80;99.90
47022;DHT22;32779;52.264;6.154;2023-07-13T16:01:19;22.90;99.90
47022;DHT22;32779;52.264;6.154;2023-07-13T16:03:46;23.10;99.70
47022;DHT22;32779;52.264;6.154;2023-07-13T16:06:28;23.00;98.00
47022;DHT22;32779;52.264;6.154;2023-07-13T16:08:54;22.90;98.30
47022;DHT22;32779;52.264;6.154;2023-07-13T16:11:23;23.00;99.20
47022;DHT22;32779;52.264;6.154;2023-07-13T16:13:49;23.00;98.20
47022;DHT22;32779;52.264;6.154;2023-07-13T16:16:23;23.10;98.10
47022;DHT22;32779;52.264;6.154;2023-07-13T16:18:55;23.10;97.90
47022;DHT22;32779;52.264;6.154;2023-07-13T16:21:43;23.20;97.10
47022;DHT22;32779;52.264;6.154;2023-07-13T16:24:18;23.10;97.70
47022;DHT22;32779;52.264;6.154;2023-07-13T16:26:46;23.10;98.30